sensor_id;sensor_type;location;lat;lon;timestamp;P1;durP1;ratioP1;P2;durP2;ratioP2
45033;SDS011;30771;47.988;-4.186;2022-11-15T07:01:57;19.92;;;2.90;;
45033;SDS011;30771;47.988;-4.186;2022-11-15T07:04:22;34.03;;;3.35;;
45033;SDS011;30771;47.988;-4.186;2022-11-15T07:06:48;26.35;;;3.05;;
45033;SDS011;30771;47.988;-4.186;2022-11-15T07:09:13;30.10;;;3.13;;
45033;SDS011;30771;47.988;-4.186;2022-11-15T07:11:39;33.40;;;3.72;;
45033;SDS011;30771;47.988;-4.186;2022-11-15T07:14:04;36.30;;;3.58;;
45033;SDS011;30771;47.988;-4.186;2022-11-15T07:16:30;33.13;;;4.00;;
45033;SDS011;30771;47.988;-4.186;2022-11-15T07:18:55;35.33;;;4.25;;
45033;SDS011;30771;47.988;-4.186;2022-11-15T07:21:20;29.60;;;4.25;;
45033;SDS011;30771;47.988;-4.186;2022-11-15T07:23:45;28.67;;;4.40;;
45033;SDS011;30771;47.988;-4.186;2022-11-15T07:26:11;29.25;;;3.22;;
45033;SDS011;30771;47.988;-4.186;2022-11-15T07:28:36;31.95;;;4.22;;
45033;SDS011;30771;47.988;-4.186;2022-11-15T07:31:05;32.60;;;4.45;;
45033;SDS011;30771;47.988;-4.186;2022-11-15T07:33:31;31.77;;;4.55;;
45033;SDS011;30771;47.988;-4.186;2022-11-15T07:36:00;30.23;;;4.47;;
45033;SDS011;30771;47.988;-4.186;2022-11-15T07:38:26;36.33;;;4.53;;
45033;SDS011;30771;47.988;-4.186;2022-11-15T07:40:58;26.65;;;3.90;;
45033;SDS011;30771;47.988;-4.186;2022-11-15T07:43:24;37.40;;;4.70;;
45033;SDS011;30771;47.988;-4.186;2022-11-15T07:45:49;43.05;;;4.13;;
45033;SDS011;30771;47.988;-4.186;2022-11-15T07:48:15;30.70;;;3.67;;
45033;SDS011;30771;47.988;-4.186;2022-11-15T07:50:40;32.67;;;4.95;;
45033;SDS011;30771;47.988;-4.186;2022-11-15T07:53:07;37.08;;;5.25;;
45033;SDS011;30771;47.988;-4.186;2022-11-15T07:55:33;44.00;;;5.53;;
45033;SDS011;30771;47.988;-4.186;2022-11-15T07:58:05;42.20;;;6.32;;
45033;SDS011;30771;47.988;-4.186;2022-11-15T08:00:33;36.08;;;4.82;;
45033;SDS011;30771;47.988;-4.186;2022-11-15T08:03:06;34.42;;;4.28;;
45033;SDS011;30771;47.988;-4.186;2022-11-15T08:05:34;29.40;;;5.18;;
45033;SDS011;30771;47.988;-4.186;2022-11-15T08:08:00;53.95;;;6.05;;
45033;SDS011;30771;47.988;-4.186;2022-11-15T08:10:26;37.55;;;4.30;;
45033;SDS011;30771;47.988;-4.186;2022-11-15T08:13:02;30.23;;;3.88;;
45033;SDS011;30771;47.988;-4.186;2022-11-15T08:15:34;36.15;;;4.70;;
45033;SDS011;30771;47.988;-4.186;2022-11-15T08:18:02;30.55;;;4.47;;
45033;SDS011;30771;47.988;-4.186;2022-11-15T08:20:37;27.48;;;3.97;;
45033;SDS011;30771;47.988;-4.186;2022-11-15T08:23:03;36.38;;;4.47;;
45033;SDS011;30771;47.988;-4.186;2022-11-15T08:25:30;34.33;;;4.47;;
45033;SDS011;30771;47.988;-4.186;2022-11-15T08:27:57;32.85;;;5.03;;
45033;SDS011;30771;47.988;-4.186;2022-11-15T08:30:24;37.17;;;4.30;;
45033;SDS011;30771;47.988;-4.186;2022-11-15T08:32:50;38.10;;;4.75;;
45033;SDS011;30771;47.988;-4.186;2022-11-15T08:35:17;34.05;;;5.30;;
45033;SDS011;30771;47.988;-4.186;2022-11-15T08:37:43;30.08;;;4.78;;
45033;SDS011;30771;47.988;-4.186;2022-11-15T08:40:09;32.15;;;5.00;;
45033;SDS011;30771;47.988;-4.186;2022-11-15T08:42:34;38.28;;;4.22;;
45033;SDS011;30771;47.988;-4.186;2022-11-15T08:45:00;35.15;;;4.78;;
45033;SDS011;30771;47.988;-4.186;2022-11-15T08:47:25;36.35;;;4.10;;
45033;SDS011;30771;47.988;-4.186;2022-11-15T08:49:51;33.03;;;3.58;;
45033;SDS011;30771;47.988;-4.186;2022-11-15T08:52:16;33.53;;;3.42;;
45033;SDS011;30771;47.988;-4.186;2022-11-15T08:54:41;39.67;;;4.00;;
45033;SDS011;30771;47.988;-4.186;2022-11-15T08:57:06;25.08;;;2.90;;
45033;SDS011;30771;47.988;-4.186;2022-11-15T08:59:32;29.33;;;3.50;;
45033;SDS011;30771;47.988;-4.186;2022-11-15T09:01:57;34.00;;;3.63;;
45033;SDS011;30771;47.988;-4.186;2022-11-15T09:04:23;28.02;;;3.70;;
45033;SDS011;30771;47.988;-4.186;2022-11-15T09:06:48;26.20;;;3.60;;
45033;SDS011;30771;47.988;-4.186;2022-11-15T09:09:13;29.02;;;3.40;;
45033;SDS011;30771;47.988;-4.186;2022-11-15T09:11:38;24.67;;;3.10;;
45033;SDS011;30771;47.988;-4.186;2022-11-15T09:14:04;32.78;;;3.70;;
45033;SDS011;30771;47.988;-4.186;2022-11-15T09:16:30;27.15;;;4.55;;
45033;SDS011;30771;47.988;-4.186;2022-11-15T09:18:56;39.53;;;4.28;;
45033;SDS011;30771;47.988;-4.186;2022-11-15T09:21:21;31.88;;;3.75;;
45033;SDS011;30771;47.988;-4.186;2022-11-15T09:23:49;26.35;;;3.15;;
45033;SDS011;30771;47.988;-4.186;2022-11-15T09:26:15;29.35;;;3.38;;
45033;SDS011;30771;47.988;-4.186;2022-11-15T09:28:40;25.63;;;3.70;;
45033;SDS011;30771;47.988;-4.186;2022-11-15T09:31:05;31.80;;;4.20;;
45033;SDS011;30771;47.988;-4.186;2022-11-15T09:33:31;16.80;;;2.00;;
45033;SDS011;30771;47.988;-4.186;2022-11-15T09:36:03;8.20;;;1.10;;
45033;SDS011;30771;47.988;-4.186;2022-11-15T09:38:30;5.93;;;0.88;;
45033;SDS011;30771;47.988;-4.186;2022-11-15T09:41:57;2.85;;;0.50;;
45033;SDS011;30771;47.988;-4.186;2022-11-15T09:49:51;6.15;;;0.80;;
45033;SDS011;30771;47.988;-4.186;2022-11-15T09:52:19;6.95;;;1.13;;
45033;SDS011;30771;47.988;-4.186;2022-11-15T09:54:47;4.78;;;1.30;;
45033;SDS011;30771;47.988;-4.186;2022-11-15T10:05:13;9.48;;;1.08;;
45033;SDS011;30771;47.988;-4.186;2022-11-15T10:12:56;10.82;;;1.80;;
45033;SDS011;30771;47.988;-4.186;2022-11-15T10:15:23;16.88;;;1.95;;
45033;SDS011;30771;47.988;-4.186;2022-11-15T10:20:34;17.30;;;2.13;;
45033;SDS011;30771;47.988;-4.186;2022-11-15T10:23:10;16.48;;;2.50;;
45033;SDS011;30771;47.988;-4.186;2022-11-15T10:25:38;18.40;;;2.70;;
45033;SDS011;30771;47.988;-4.186;2022-11-15T10:35:42;16.52;;;2.42;;
45033;SDS011;30771;47.988;-4.186;2022-11-15T10:38:09;17.90;;;2.38;;
45033;SDS011;30771;47.988;-4.186;2022-11-15T10:40:35;22.00;;;2.38;;
45033;SDS011;30771;47.988;-4.186;2022-11-15T10:43:12;20.33;;;2.75;;
45033;SDS011;30771;47.988;-4.186;2022-11-15T10:45:39;14.07;;;1.65;;
45033;SDS011;30771;47.988;-4.186;2022-11-15T10:50:42;20.58;;;2.13;;
45033;SDS011;30771;47.988;-4.186;2022-11-15T10:53:15;19.85;;;2.58;;
45033;SDS011;30771;47.988;-4.186;2022-11-15T10:55:41;20.95;;;2.95;;
45033;SDS011;30771;47.988;-4.186;2022-11-15T11:01:11;15.55;;;2.22;;
45033;SDS011;30771;47.988;-4.186;2022-11-15T11:03:42;12.57;;;2.25;;
45033;SDS011;30771;47.988;-4.186;2022-11-15T11:08:34;12.02;;;2.20;;
45033;SDS011;30771;47.988;-4.186;2022-11-15T11:11:00;10.35;;;1.60;;
45033;SDS011;30771;47.988;-4.186;2022-11-15T11:13:30;8.48;;;2.00;;
45033;SDS011;30771;47.988;-4.186;2022-11-15T11:19:04;9.55;;;1.60;;
45033;SDS011;30771;47.988;-4.186;2022-11-15T11:24:15;16.58;;;2.20;;
45033;SDS011;30771;47.988;-4.186;2022-11-15T11:26:59;11.65;;;1.88;;
45033;SDS011;30771;47.988;-4.186;2022-11-15T11:29:32;13.00;;;2.00;;
45033;SDS011;30771;47.988;-4.186;2022-11-15T11:34:36;12.90;;;2.47;;
45033;SDS011;30771;47.988;-4.186;2022-11-15T11:37:12;10.57;;;1.90;;
45033;SDS011;30771;47.988;-4.186;2022-11-15T11:42:41;13.43;;;2.28;;
45033;SDS011;30771;47.988;-4.186;2022-11-15T11:45:24;12.88;;;2.10;;
45033;SDS011;30771;47.988;-4.186;2022-11-15T11:50:40;12.90;;;1.48;;
45033;SDS011;30771;47.988;-4.186;2022-11-15T11:55:51;21.63;;;2.13;;
45033;SDS011;30771;47.988;-4.186;2022-11-15T12:03:43;19.60;;;2.20;;
45033;SDS011;30771;47.988;-4.186;2022-11-15T12:11:45;15.30;;;1.80;;
45033;SDS011;30771;47.988;-4.186;2022-11-15T12:14:16;21.05;;;2.33;;
45033;SDS011;30771;47.988;-4.186;2022-11-15T12:16:50;13.48;;;1.77;;
45033;SDS011;30771;47.988;-4.186;2022-11-15T12:19:16;15.20;;;1.70;;
45033;SDS011;30771;47.988;-4.186;2022-11-15T12:24:29;17.95;;;1.98;;
45033;SDS011;30771;47.988;-4.186;2022-11-15T12:27:02;15.15;;;2.42;;
45033;SDS011;30771;47.988;-4.186;2022-11-15T12:29:40;17.83;;;2.40;;
45033;SDS011;30771;47.988;-4.186;2022-11-15T12:32:26;20.75;;;1.85;;
45033;SDS011;30771;47.988;-4.186;2022-11-15T12:40:15;13.57;;;2.00;;
45033;SDS011;30771;47.988;-4.186;2022-11-15T12:43:04;18.27;;;2.80;;
45033;SDS011;30771;47.988;-4.186;2022-11-15T12:45:50;20.77;;;2.22;;
45033;SDS011;30771;47.988;-4.186;2022-11-15T13:01:10;16.20;;;2.80;;
45033;SDS011;30771;47.988;-4.186;2022-11-15T13:06:49;14.40;;;2.08;;
45033;SDS011;30771;47.988;-4.186;2022-11-15T13:14:45;21.42;;;2.42;;
45033;SDS011;30771;47.988;-4.186;2022-11-15T13:17:33;17.00;;;2.47;;
45033;SDS011;30771;47.988;-4.186;2022-11-15T13:27:47;13.10;;;2.03;;
45033;SDS011;30771;47.988;-4.186;2022-11-15T13:30:24;15.10;;;2.83;;
45033;SDS011;30771;47.988;-4.186;2022-11-15T13:32:51;15.43;;;1.80;;
45033;SDS011;30771;47.988;-4.186;2022-11-15T13:35:19;11.98;;;2.03;;
45033;SDS011;30771;47.988;-4.186;2022-11-15T13:37:46;12.60;;;2.38;;
45033;SDS011;30771;47.988;-4.186;2022-11-15T13:40:18;14.65;;;2.40;;
45033;SDS011;30771;47.988;-4.186;2022-11-15T13:42:44;18.20;;;2.33;;
45033;SDS011;30771;47.988;-4.186;2022-11-15T13:45:13;22.17;;;2.40;;
45033;SDS011;30771;47.988;-4.186;2022-11-15T13:47:40;17.38;;;2.38;;
45033;SDS011;30771;47.988;-4.186;2022-11-15T13:50:05;12.32;;;2.25;;
45033;SDS011;30771;47.988;-4.186;2022-11-15T13:52:34;22.15;;;2.83;;
45033;SDS011;30771;47.988;-4.186;2022-11-15T13:57:50;18.20;;;3.13;;
45033;SDS011;30771;47.988;-4.186;2022-11-15T14:02:56;14.25;;;3.17;;
45033;SDS011;30771;47.988;-4.186;2022-11-15T14:05:23;24.55;;;2.65;;
45033;SDS011;30771;47.988;-4.186;2022-11-15T14:07:56;19.48;;;2.30;;
45033;SDS011;30771;47.988;-4.186;2022-11-15T14:10:33;16.05;;;2.13;;
45033;SDS011;30771;47.988;-4.186;2022-11-15T14:13:01;18.35;;;2.35;;
45033;SDS011;30771;47.988;-4.186;2022-11-15T14:17:56;20.58;;;2.50;;
45033;SDS011;30771;47.988;-4.186;2022-11-15T14:22:56;17.83;;;2.50;;
45033;SDS011;30771;47.988;-4.186;2022-11-15T14:25:33;13.20;;;2.30;;
45033;SDS011;30771;47.988;-4.186;2022-11-15T14:30:34;23.05;;;2.00;;
45033;SDS011;30771;47.988;-4.186;2022-11-15T14:32:59;15.75;;;2.20;;
45033;SDS011;30771;47.988;-4.186;2022-11-15T14:35:25;23.30;;;2.78;;
45033;SDS011;30771;47.988;-4.186;2022-11-15T14:37:50;12.68;;;2.30;;
45033;SDS011;30771;47.988;-4.186;2022-11-15T14:40:19;19.02;;;2.38;;
45033;SDS011;30771;47.988;-4.186;2022-11-15T14:42:47;14.50;;;2.30;;
45033;SDS011;30771;47.988;-4.186;2022-11-15T14:45:15;13.40;;;1.63;;
45033;SDS011;30771;47.988;-4.186;2022-11-15T14:47:42;9.23;;;1.48;;
45033;SDS011;30771;47.988;-4.186;2022-11-15T14:50:12;14.38;;;1.77;;
45033;SDS011;30771;47.988;-4.186;2022-11-15T14:52:38;8.90;;;1.33;;
45033;SDS011;30771;47.988;-4.186;2022-11-15T14:55:08;11.77;;;1.30;;
45033;SDS011;30771;47.988;-4.186;2022-11-15T14:57:41;8.85;;;1.70;;
45033;SDS011;30771;47.988;-4.186;2022-11-15T15:00:06;11.65;;;1.88;;
45033;SDS011;30771;47.988;-4.186;2022-11-15T15:02:32;13.32;;;1.65;;
45033;SDS011;30771;47.988;-4.186;2022-11-15T15:04:57;13.90;;;1.92;;
45033;SDS011;30771;47.988;-4.186;2022-11-15T15:07:23;13.25;;;1.63;;
45033;SDS011;30771;47.988;-4.186;2022-11-15T15:09:48;14.55;;;1.80;;
45033;SDS011;30771;47.988;-4.186;2022-11-15T15:12:17;13.15;;;1.70;;
45033;SDS011;30771;47.988;-4.186;2022-11-15T15:14:45;21.27;;;1.98;;
45033;SDS011;30771;47.988;-4.186;2022-11-15T15:17:11;16.13;;;2.35;;
45033;SDS011;30771;47.988;-4.186;2022-11-15T15:19:37;15.07;;;1.98;;
45033;SDS011;30771;47.988;-4.186;2022-11-15T15:22:02;13.32;;;1.80;;
45033;SDS011;30771;47.988;-4.186;2022-11-15T15:24:27;18.38;;;2.22;;
45033;SDS011;30771;47.988;-4.186;2022-11-15T15:26:53;23.98;;;2.50;;
45033;SDS011;30771;47.988;-4.186;2022-11-15T15:29:18;21.08;;;2.45;;
45033;SDS011;30771;47.988;-4.186;2022-11-15T15:31:43;14.70;;;2.42;;
45033;SDS011;30771;47.988;-4.186;2022-11-15T15:34:08;18.75;;;2.60;;
45033;SDS011;30771;47.988;-4.186;2022-11-15T15:36:34;13.15;;;2.40;;
45033;SDS011;30771;47.988;-4.186;2022-11-15T15:38:59;25.13;;;3.40;;
45033;SDS011;30771;47.988;-4.186;2022-11-15T15:41:24;20.58;;;2.10;;
45033;SDS011;30771;47.988;-4.186;2022-11-15T15:43:50;15.10;;;2.20;;
45033;SDS011;30771;47.988;-4.186;2022-11-15T15:46:15;20.50;;;2.58;;
45033;SDS011;30771;47.988;-4.186;2022-11-15T15:48:42;19.50;;;2.72;;
45033;SDS011;30771;47.988;-4.186;2022-11-15T15:51:08;21.67;;;2.10;;
45033;SDS011;30771;47.988;-4.186;2022-11-15T15:53:33;20.30;;;2.75;;
45033;SDS011;30771;47.988;-4.186;2022-11-15T15:55:59;23.02;;;2.80;;
45033;SDS011;30771;47.988;-4.186;2022-11-15T15:58:24;21.65;;;2.63;;
45033;SDS011;30771;47.988;-4.186;2022-11-15T16:00:50;26.52;;;2.95;;
45033;SDS011;30771;47.988;-4.186;2022-11-15T16:03:15;18.38;;;2.58;;
45033;SDS011;30771;47.988;-4.186;2022-11-15T16:05:41;21.02;;;2.70;;
45033;SDS011;30771;47.988;-4.186;2022-11-15T16:08:11;16.20;;;2.17;;
45033;SDS011;30771;47.988;-4.186;2022-11-15T16:10:43;23.10;;;3.15;;
45033;SDS011;30771;47.988;-4.186;2022-11-15T16:13:08;21.75;;;3.08;;
45033;SDS011;30771;47.988;-4.186;2022-11-15T16:15:34;18.90;;;2.75;;
45033;SDS011;30771;47.988;-4.186;2022-11-15T16:18:00;24.75;;;2.75;;
45033;SDS011;30771;47.988;-4.186;2022-11-15T16:22:57;19.48;;;2.95;;
45033;SDS011;30771;47.988;-4.186;2022-11-15T16:25:23;24.13;;;3.30;;
45033;SDS011;30771;47.988;-4.186;2022-11-15T16:27:48;21.80;;;3.33;;
45033;SDS011;30771;47.988;-4.186;2022-11-15T16:30:14;21.85;;;3.35;;
45033;SDS011;30771;47.988;-4.186;2022-11-15T16:32:40;18.42;;;2.65;;
45033;SDS011;30771;47.988;-4.186;2022-11-15T16:35:06;17.08;;;1.98;;
45033;SDS011;30771;47.988;-4.186;2022-11-15T16:37:35;15.20;;;2.40;;
45033;SDS011;30771;47.988;-4.186;2022-11-15T16:40:01;17.83;;;2.38;;
45033;SDS011;30771;47.988;-4.186;2022-11-15T16:42:27;13.88;;;2.17;;
45033;SDS011;30771;47.988;-4.186;2022-11-15T16:44:53;13.43;;;2.30;;
45033;SDS011;30771;47.988;-4.186;2022-11-15T16:47:19;14.85;;;2.40;;
45033;SDS011;30771;47.988;-4.186;2022-11-15T16:49:44;17.23;;;1.83;;
45033;SDS011;30771;47.988;-4.186;2022-11-15T16:52:10;18.52;;;2.28;;
45033;SDS011;30771;47.988;-4.186;2022-11-15T16:54:35;15.60;;;2.17;;
45033;SDS011;30771;47.988;-4.186;2022-11-15T16:57:01;20.38;;;2.50;;
45033;SDS011;30771;47.988;-4.186;2022-11-15T16:59:26;14.70;;;2.28;;
45033;SDS011;30771;47.988;-4.186;2022-11-15T17:01:51;25.23;;;3.03;;
45033;SDS011;30771;47.988;-4.186;2022-11-15T17:04:17;17.42;;;3.08;;
45033;SDS011;30771;47.988;-4.186;2022-11-15T17:06:43;26.23;;;3.13;;
45033;SDS011;30771;47.988;-4.186;2022-11-15T17:09:12;19.25;;;2.60;;
45033;SDS011;30771;47.988;-4.186;2022-11-15T17:11:39;24.48;;;2.75;;
45033;SDS011;30771;47.988;-4.186;2022-11-15T17:14:05;24.40;;;3.47;;
45033;SDS011;30771;47.988;-4.186;2022-11-15T17:16:30;12.35;;;2.00;;
45033;SDS011;30771;47.988;-4.186;2022-11-15T17:18:55;8.75;;;1.35;;
45033;SDS011;30771;47.988;-4.186;2022-11-15T17:21:21;10.05;;;2.30;;
45033;SDS011;30771;47.988;-4.186;2022-11-15T17:23:47;9.65;;;1.67;;
45033;SDS011;30771;47.988;-4.186;2022-11-15T17:26:13;16.98;;;2.72;;
45033;SDS011;30771;47.988;-4.186;2022-11-15T17:28:40;15.75;;;1.85;;
45033;SDS011;30771;47.988;-4.186;2022-11-15T17:31:09;15.45;;;2.00;;
45033;SDS011;30771;47.988;-4.186;2022-11-15T17:33:36;10.60;;;1.65;;
45033;SDS011;30771;47.988;-4.186;2022-11-15T17:36:05;12.15;;;1.67;;
45033;SDS011;30771;47.988;-4.186;2022-11-15T17:38:32;11.10;;;1.65;;
45033;SDS011;30771;47.988;-4.186;2022-11-15T17:41:08;27.15;;;12.57;;
45033;SDS011;30771;47.988;-4.186;2022-11-15T17:46:05;22.52;;;3.65;;
45033;SDS011;30771;47.988;-4.186;2022-11-15T17:48:32;25.38;;;8.63;;
45033;SDS011;30771;47.988;-4.186;2022-11-15T17:50:59;30.02;;;6.22;;
45033;SDS011;30771;47.988;-4.186;2022-11-15T17:53:25;29.17;;;4.60;;
45033;SDS011;30771;47.988;-4.186;2022-11-15T17:55:51;25.20;;;3.80;;
45033;SDS011;30771;47.988;-4.186;2022-11-15T17:58:18;22.52;;;3.55;;
45033;SDS011;30771;47.988;-4.186;2022-11-15T18:00:47;33.38;;;4.25;;
45033;SDS011;30771;47.988;-4.186;2022-11-15T18:03:13;24.95;;;5.65;;
45033;SDS011;30771;47.988;-4.186;2022-11-15T18:05:39;23.33;;;3.15;;
45033;SDS011;30771;47.988;-4.186;2022-11-15T18:08:04;19.00;;;3.00;;
45033;SDS011;30771;47.988;-4.186;2022-11-15T18:10:30;17.67;;;4.20;;
45033;SDS011;30771;47.988;-4.186;2022-11-15T18:12:55;17.50;;;3.40;;
45033;SDS011;30771;47.988;-4.186;2022-11-15T18:15:20;20.05;;;5.00;;
45033;SDS011;30771;47.988;-4.186;2022-11-15T18:17:46;23.27;;;3.63;;
45033;SDS011;30771;47.988;-4.186;2022-11-15T18:20:11;21.50;;;3.55;;
45033;SDS011;30771;47.988;-4.186;2022-11-15T18:22:36;20.25;;;2.70;;
45033;SDS011;30771;47.988;-4.186;2022-11-15T18:25:02;24.75;;;3.00;;
45033;SDS011;30771;47.988;-4.186;2022-11-15T18:27:27;24.60;;;3.17;;
45033;SDS011;30771;47.988;-4.186;2022-11-15T18:29:53;19.83;;;3.30;;
45033;SDS011;30771;47.988;-4.186;2022-11-15T18:32:18;23.60;;;3.78;;
45033;SDS011;30771;47.988;-4.186;2022-11-15T18:34:43;31.15;;;3.38;;
45033;SDS011;30771;47.988;-4.186;2022-11-15T18:37:09;33.03;;;3.85;;
45033;SDS011;30771;47.988;-4.186;2022-11-15T18:39:34;33.90;;;4.38;;
45033;SDS011;30771;47.988;-4.186;2022-11-15T18:41:59;21.35;;;3.45;;
45033;SDS011;30771;47.988;-4.186;2022-11-15T18:44:24;24.23;;;3.08;;
45033;SDS011;30771;47.988;-4.186;2022-11-15T18:46:52;20.67;;;2.83;;
45033;SDS011;30771;47.988;-4.186;2022-11-15T18:49:17;12.10;;;1.70;;
45033;SDS011;30771;47.988;-4.186;2022-11-15T18:51:42;15.43;;;1.90;;
45033;SDS011;30771;47.988;-4.186;2022-11-15T18:54:09;18.65;;;2.53;;
45033;SDS011;30771;47.988;-4.186;2022-11-15T18:56:36;17.48;;;2.50;;
45033;SDS011;30771;47.988;-4.186;2022-11-15T18:59:02;46.47;;;18.80;;
45033;SDS011;30771;47.988;-4.186;2022-11-15T19:01:29;14.75;;;2.65;;
45033;SDS011;30771;47.988;-4.186;2022-11-15T19:03:56;10.10;;;1.83;;
45033;SDS011;30771;47.988;-4.186;2022-11-15T19:06:23;16.02;;;1.73;;
45033;SDS011;30771;47.988;-4.186;2022-11-15T19:08:53;13.38;;;3.67;;
45033;SDS011;30771;47.988;-4.186;2022-11-15T19:11:20;40.55;;;15.30;;
45033;SDS011;30771;47.988;-4.186;2022-11-15T19:13:47;24.70;;;3.83;;
45033;SDS011;30771;47.988;-4.186;2022-11-15T19:16:17;12.95;;;2.55;;
45033;SDS011;30771;47.988;-4.186;2022-11-15T19:18:43;23.92;;;3.17;;
45033;SDS011;30771;47.988;-4.186;2022-11-15T19:21:09;14.88;;;3.15;;
45033;SDS011;30771;47.988;-4.186;2022-11-15T19:23:36;15.40;;;2.72;;
45033;SDS011;30771;47.988;-4.186;2022-11-15T19:26:03;12.88;;;1.80;;
45033;SDS011;30771;47.988;-4.186;2022-11-15T19:28:30;24.38;;;2.70;;
45033;SDS011;30771;47.988;-4.186;2022-11-15T19:31:03;19.50;;;2.05;;
45033;SDS011;30771;47.988;-4.186;2022-11-15T19:33:36;18.70;;;3.15;;
45033;SDS011;30771;47.988;-4.186;2022-11-15T19:36:03;16.95;;;2.03;;
45033;SDS011;30771;47.988;-4.186;2022-11-15T19:38:30;17.33;;;2.65;;
45033;SDS011;30771;47.988;-4.186;2022-11-15T19:40:57;19.15;;;2.40;;
45033;SDS011;30771;47.988;-4.186;2022-11-15T19:43:26;19.40;;;2.17;;
45033;SDS011;30771;47.988;-4.186;2022-11-15T19:45:52;18.20;;;2.58;;
45033;SDS011;30771;47.988;-4.186;2022-11-15T19:48:18;17.45;;;2.50;;
45033;SDS011;30771;47.988;-4.186;2022-11-15T19:50:44;22.98;;;3.10;;
45033;SDS011;30771;47.988;-4.186;2022-11-15T19:53:09;18.40;;;2.85;;
45033;SDS011;30771;47.988;-4.186;2022-11-15T19:55:34;18.40;;;2.33;;
45033;SDS011;30771;47.988;-4.186;2022-11-15T19:57:59;17.00;;;3.00;;
45033;SDS011;30771;47.988;-4.186;2022-11-15T20:00:25;22.48;;;2.95;;
45033;SDS011;30771;47.988;-4.186;2022-11-15T20:02:50;31.55;;;8.60;;
45033;SDS011;30771;47.988;-4.186;2022-11-15T20:05:15;20.25;;;4.00;;
45033;SDS011;30771;47.988;-4.186;2022-11-15T20:07:41;43.85;;;10.90;;
45033;SDS011;30771;47.988;-4.186;2022-11-15T20:10:06;34.58;;;7.97;;
45033;SDS011;30771;47.988;-4.186;2022-11-15T20:12:32;33.45;;;9.05;;
45033;SDS011;30771;47.988;-4.186;2022-11-15T20:14:57;23.65;;;4.55;;
45033;SDS011;30771;47.988;-4.186;2022-11-15T20:17:23;31.65;;;7.53;;
45033;SDS011;30771;47.988;-4.186;2022-11-15T20:19:48;29.23;;;6.43;;
45033;SDS011;30771;47.988;-4.186;2022-11-15T20:22:13;27.42;;;5.43;;
45033;SDS011;30771;47.988;-4.186;2022-11-15T20:24:39;35.00;;;9.40;;
45033;SDS011;30771;47.988;-4.186;2022-11-15T20:27:04;22.05;;;3.03;;
45033;SDS011;30771;47.988;-4.186;2022-11-15T20:29:29;21.05;;;3.53;;
45033;SDS011;30771;47.988;-4.186;2022-11-15T20:31:54;24.73;;;3.22;;
45033;SDS011;30771;47.988;-4.186;2022-11-15T20:34:20;23.25;;;3.08;;
45033;SDS011;30771;47.988;-4.186;2022-11-15T20:36:45;30.35;;;5.60;;
45033;SDS011;30771;47.988;-4.186;2022-11-15T20:39:10;52.53;;;14.35;;
45033;SDS011;30771;47.988;-4.186;2022-11-15T20:41:36;30.52;;;5.55;;
45033;SDS011;30771;47.988;-4.186;2022-11-15T20:44:01;53.70;;;14.30;;
45033;SDS011;30771;47.988;-4.186;2022-11-15T20:46:26;19.92;;;4.28;;
45033;SDS011;30771;47.988;-4.186;2022-11-15T20:48:52;22.83;;;4.07;;
45033;SDS011;30771;47.988;-4.186;2022-11-15T20:51:17;18.98;;;2.60;;
45033;SDS011;30771;47.988;-4.186;2022-11-15T20:53:43;20.83;;;2.50;;
45033;SDS011;30771;47.988;-4.186;2022-11-15T20:56:13;26.02;;;3.75;;
45033;SDS011;30771;47.988;-4.186;2022-11-15T20:58:40;19.75;;;2.72;;
45033;SDS011;30771;47.988;-4.186;2022-11-15T21:01:07;25.50;;;3.70;;
45033;SDS011;30771;47.988;-4.186;2022-11-15T21:03:35;20.90;;;2.58;;
45033;SDS011;30771;47.988;-4.186;2022-11-15T21:06:00;15.65;;;2.70;;
45033;SDS011;30771;47.988;-4.186;2022-11-15T21:08:26;27.80;;;2.92;;
45033;SDS011;30771;47.988;-4.186;2022-11-15T21:10:51;22.02;;;3.33;;
45033;SDS011;30771;47.988;-4.186;2022-11-15T21:13:18;21.27;;;3.13;;
45033;SDS011;30771;47.988;-4.186;2022-11-15T21:15:48;19.30;;;3.30;;
45033;SDS011;30771;47.988;-4.186;2022-11-15T21:18:22;22.88;;;2.85;;
45033;SDS011;30771;47.988;-4.186;2022-11-15T21:20:47;18.75;;;2.67;;
45033;SDS011;30771;47.988;-4.186;2022-11-15T21:23:14;26.50;;;3.22;;
45033;SDS011;30771;47.988;-4.186;2022-11-15T21:25:39;22.85;;;3.35;;
45033;SDS011;30771;47.988;-4.186;2022-11-15T21:28:05;28.58;;;3.08;;
45033;SDS011;30771;47.988;-4.186;2022-11-15T21:30:30;33.58;;;3.55;;
45033;SDS011;30771;47.988;-4.186;2022-11-15T21:32:56;21.58;;;3.50;;
45033;SDS011;30771;47.988;-4.186;2022-11-15T21:35:21;29.42;;;3.13;;
45033;SDS011;30771;47.988;-4.186;2022-11-15T21:37:46;26.88;;;3.22;;
45033;SDS011;30771;47.988;-4.186;2022-11-15T21:40:12;20.23;;;3.03;;
45033;SDS011;30771;47.988;-4.186;2022-11-15T21:42:37;30.77;;;3.20;;
45033;SDS011;30771;47.988;-4.186;2022-11-15T21:45:02;17.58;;;2.30;;
45033;SDS011;30771;47.988;-4.186;2022-11-15T21:47:28;23.05;;;2.20;;
45033;SDS011;30771;47.988;-4.186;2022-11-15T21:49:53;12.32;;;2.10;;
45033;SDS011;30771;47.988;-4.186;2022-11-15T21:52:19;23.77;;;2.22;;
45033;SDS011;30771;47.988;-4.186;2022-11-15T21:54:44;15.63;;;2.30;;
45033;SDS011;30771;47.988;-4.186;2022-11-15T21:57:09;12.65;;;1.98;;
45033;SDS011;30771;47.988;-4.186;2022-11-15T21:59:35;12.57;;;2.08;;
45033;SDS011;30771;47.988;-4.186;2022-11-15T22:02:00;26.42;;;3.50;;
45033;SDS011;30771;47.988;-4.186;2022-11-15T22:04:25;27.23;;;3.70;;
45033;SDS011;30771;47.988;-4.186;2022-11-15T22:06:51;21.83;;;3.13;;
45033;SDS011;30771;47.988;-4.186;2022-11-15T22:09:16;28.70;;;3.55;;
45033;SDS011;30771;47.988;-4.186;2022-11-15T22:11:41;31.45;;;4.20;;
45033;SDS011;30771;47.988;-4.186;2022-11-15T22:14:07;20.13;;;2.95;;
45033;SDS011;30771;47.988;-4.186;2022-11-15T22:16:32;26.42;;;3.13;;
45033;SDS011;30771;47.988;-4.186;2022-11-15T22:18:58;20.80;;;2.60;;
45033;SDS011;30771;47.988;-4.186;2022-11-15T22:21:23;22.67;;;3.28;;
45033;SDS011;30771;47.988;-4.186;2022-11-15T22:23:48;20.35;;;3.40;;
45033;SDS011;30771;47.988;-4.186;2022-11-15T22:26:16;17.60;;;2.38;;
45033;SDS011;30771;47.988;-4.186;2022-11-15T22:28:42;19.50;;;2.47;;
45033;SDS011;30771;47.988;-4.186;2022-11-15T22:31:07;16.77;;;2.25;;
45033;SDS011;30771;47.988;-4.186;2022-11-15T22:33:33;18.42;;;3.53;;
45033;SDS011;30771;47.988;-4.186;2022-11-15T22:35:59;17.52;;;2.70;;
45033;SDS011;30771;47.988;-4.186;2022-11-15T22:38:25;18.52;;;2.08;;
45033;SDS011;30771;47.988;-4.186;2022-11-15T22:40:51;14.35;;;2.30;;
45033;SDS011;30771;47.988;-4.186;2022-11-15T22:43:17;18.27;;;1.80;;
45033;SDS011;30771;47.988;-4.186;2022-11-15T22:48:15;21.10;;;2.38;;
45033;SDS011;30771;47.988;-4.186;2022-11-15T22:50:41;31.17;;;3.22;;
45033;SDS011;30771;47.988;-4.186;2022-11-15T22:53:07;23.58;;;2.50;;
45033;SDS011;30771;47.988;-4.186;2022-11-15T22:55:32;29.42;;;3.92;;
45033;SDS011;30771;47.988;-4.186;2022-11-15T22:57:58;38.28;;;4.95;;
